createdAt,value
2018-03-14T00:00:09.610Z,8.10
2018-03-14T00:02:37.293Z,9.40
2018-03-14T00:05:04.977Z,9.60
2018-03-14T00:07:32.631Z,7.73
2018-03-14T00:10:00.308Z,6.00
2018-03-14T00:12:28.013Z,5.20
2018-03-14T00:14:56.430Z,7.17
2018-03-14T00:17:24.158Z,5.93
2018-03-14T00:19:51.821Z,4.40
2018-03-14T00:22:33.984Z,5.90
2018-03-14T00:25:02.037Z,4.10
2018-03-14T00:27:29.690Z,3.57
2018-03-14T00:29:57.872Z,3.30
2018-03-14T00:32:25.578Z,3.70
2018-03-14T00:34:53.992Z,7.23
2018-03-14T00:37:21.656Z,4.80
2018-03-14T00:39:49.330Z,4.17
2018-03-14T00:42:16.993Z,4.80
2018-03-14T00:44:44.676Z,5.60
2018-03-14T00:47:12.362Z,4.53
2018-03-14T00:49:40.780Z,5.60
2018-03-14T00:52:08.506Z,5.93
2018-03-14T00:54:36.198Z,3.93
2018-03-14T00:57:03.877Z,6.53
2018-03-14T00:59:31.563Z,6.27
2018-03-14T01:01:59.267Z,4.87
2018-03-14T01:04:26.916Z,4.47
2018-03-14T01:06:55.351Z,5.97
2018-03-14T01:09:23.077Z,4.73
2018-03-14T01:11:51.466Z,4.80
2018-03-14T01:14:19.162Z,8.07
2018-03-14T01:16:46.840Z,5.30
2018-03-14T01:19:14.497Z,5.63
2018-03-14T01:21:42.973Z,4.63
2018-03-14T01:24:11.470Z,4.70
2018-03-14T01:26:39.110Z,5.17
2018-03-14T01:29:07.565Z,5.17
2018-03-14T01:31:35.248Z,6.63
2018-03-14T01:34:02.898Z,2.90
2018-03-14T01:36:31.184Z,3.90
2018-03-14T01:38:59.339Z,2.87
2018-03-14T01:41:28.376Z,4.90
2018-03-14T01:43:56.689Z,3.90
2018-03-14T01:46:25.115Z,3.87
2018-03-14T01:48:53.530Z,3.10
2018-03-14T01:51:21.227Z,3.23
2018-03-14T01:53:48.917Z,4.17
2018-03-14T01:56:17.326Z,2.67
2018-03-14T01:58:45.013Z,3.33
2018-03-14T02:01:12.740Z,3.80
2018-03-14T02:03:40.445Z,4.27
2018-03-14T02:06:08.164Z,3.33
2018-03-14T02:08:35.831Z,4.87
2018-03-14T02:11:03.495Z,3.67
2018-03-14T02:13:31.159Z,3.50
2018-03-14T02:15:58.834Z,5.43
2018-03-14T02:18:26.509Z,7.77
2018-03-14T02:20:54.218Z,4.67
2018-03-14T02:23:21.895Z,6.57
2018-03-14T02:25:49.524Z,5.50
2018-03-14T02:28:17.959Z,4.83
2018-03-14T02:30:45.625Z,5.17
2018-03-14T02:33:13.272Z,7.97
2018-03-14T02:35:40.939Z,8.23
2018-03-14T02:38:08.637Z,7.27
2018-03-14T02:40:37.058Z,7.37
2018-03-14T02:43:04.764Z,6.50
2018-03-14T02:45:32.513Z,8.33
2018-03-14T02:48:00.423Z,8.00
2018-03-14T02:50:29.504Z,7.67
2018-03-14T02:52:58.902Z,8.17
2018-03-14T02:55:26.572Z,7.37
2018-03-14T02:57:54.223Z,9.43
2018-03-14T03:00:21.897Z,7.10
2018-03-14T03:02:49.528Z,8.73
2018-03-14T03:05:17.179Z,7.20
2018-03-14T03:07:44.816Z,8.97
2018-03-14T03:10:12.427Z,9.40
2018-03-14T03:12:40.080Z,9.43
2018-03-14T03:15:07.773Z,8.70
2018-03-14T03:17:35.513Z,10.60
2018-03-14T03:20:03.172Z,13.20
2018-03-14T03:22:30.841Z,10.87
2018-03-14T03:24:58.496Z,10.20
2018-03-14T03:27:27.660Z,8.20
2018-03-14T03:29:55.324Z,13.83
2018-03-14T03:32:23.102Z,10.00
2018-03-14T03:34:50.784Z,10.30
2018-03-14T03:37:19.228Z,11.43
2018-03-14T03:39:46.868Z,10.97
2018-03-14T03:42:14.552Z,9.70
2018-03-14T03:44:42.220Z,11.63
2018-03-14T03:47:09.860Z,9.80
2018-03-14T03:49:37.524Z,9.50
2018-03-14T03:52:05.208Z,12.40
2018-03-14T03:54:32.858Z,12.57
2018-03-14T03:57:00.527Z,11.50
2018-03-14T03:59:28.249Z,10.93
2018-03-14T04:01:56.436Z,12.10
2018-03-14T04:04:24.931Z,12.13
2018-03-14T04:06:52.619Z,13.10
2018-03-14T04:09:21.034Z,10.70
2018-03-14T04:11:48.701Z,14.47
2018-03-14T04:14:16.387Z,13.30
2018-03-14T04:16:44.029Z,10.40
2018-03-14T04:19:11.693Z,12.87
2018-03-14T04:21:39.343Z,13.70
2018-03-14T04:24:06.990Z,17.83
2018-03-14T04:26:34.660Z,15.27
2018-03-14T04:29:02.320Z,16.70
2018-03-14T04:31:31.000Z,12.53
2018-03-14T04:33:58.682Z,15.07
2018-03-14T04:36:26.363Z,16.97
2018-03-14T04:38:54.008Z,16.97
2018-03-14T04:41:21.712Z,14.60
2018-03-14T04:43:50.173Z,15.00
2018-03-14T04:46:18.619Z,12.37
2018-03-14T04:48:46.320Z,16.40
2018-03-14T04:51:14.776Z,16.80
2018-03-14T04:53:42.438Z,15.83
2018-03-14T04:56:10.146Z,16.97
2018-03-14T04:58:37.802Z,13.67
2018-03-14T05:01:05.591Z,17.27
2018-03-14T05:03:33.257Z,20.43
2018-03-14T05:06:00.932Z,22.03
2018-03-14T05:08:28.564Z,18.93
2018-03-14T05:10:56.234Z,14.90
2018-03-14T05:13:23.921Z,20.83
2018-03-14T05:15:52.380Z,22.33
2018-03-14T05:18:20.057Z,14.87
2018-03-14T05:20:47.739Z,14.60
2018-03-14T05:23:15.380Z,15.80
2018-03-14T05:25:43.860Z,16.97
2018-03-14T05:28:11.574Z,15.27
2018-03-14T05:30:39.252Z,14.97
2018-03-14T05:33:06.933Z,15.90
2018-03-14T05:35:34.613Z,13.13
2018-03-14T05:38:02.247Z,17.57
2018-03-14T05:40:29.919Z,13.90
2018-03-14T05:42:57.584Z,16.17
2018-03-14T05:45:25.248Z,18.67
2018-03-14T05:47:52.947Z,17.23
2018-03-14T05:50:20.613Z,19.40
2018-03-14T05:52:48.289Z,15.70
2018-03-14T05:55:15.953Z,22.17
2018-03-14T05:57:43.689Z,16.27
2018-03-14T06:00:12.130Z,18.10
2018-03-14T06:02:39.943Z,16.50
2018-03-14T06:05:07.635Z,13.70
2018-03-14T06:07:35.294Z,13.17
2018-03-14T06:10:02.997Z,12.80
2018-03-14T06:12:31.439Z,14.33
2018-03-14T06:14:59.106Z,11.17
2018-03-14T06:17:26.868Z,11.50
2018-03-14T06:19:54.531Z,12.73
2018-03-14T06:22:22.269Z,8.20
2018-03-14T06:24:49.977Z,14.13
2018-03-14T06:27:17.674Z,10.47
2018-03-14T06:29:45.341Z,9.23
2018-03-14T06:32:13.092Z,10.57
2018-03-14T06:34:40.768Z,13.13
2018-03-14T06:37:08.448Z,14.60
2018-03-14T06:39:36.187Z,10.77
2018-03-14T06:42:04.648Z,9.77
2018-03-14T06:44:32.375Z,13.80
2018-03-14T06:47:00.111Z,14.33
2018-03-14T06:49:27.800Z,13.00
2018-03-14T06:51:55.457Z,12.43
2018-03-14T06:54:23.140Z,12.30
2018-03-14T06:56:51.625Z,12.40
2018-03-14T06:59:31.884Z,12.93
2018-03-14T07:02:11.439Z,10.27
2018-03-14T07:07:32.599Z,13.87
2018-03-14T07:10:00.308Z,12.83
2018-03-14T07:12:28.751Z,13.40
2018-03-14T07:14:56.386Z,15.00
2018-03-14T07:17:24.154Z,17.53
2018-03-14T07:19:51.855Z,16.17
2018-03-14T07:22:20.272Z,18.67
2018-03-14T07:24:47.996Z,12.30
2018-03-14T07:27:16.472Z,18.30
2018-03-14T07:29:44.924Z,21.70
2018-03-14T07:32:12.618Z,13.47
2018-03-14T07:34:41.104Z,14.33
2018-03-14T07:37:09.514Z,14.00
2018-03-14T07:39:37.350Z,15.23
2018-03-14T07:42:05.851Z,13.73
2018-03-14T07:44:33.479Z,19.27
2018-03-14T07:47:02.455Z,16.60
2018-03-14T07:49:30.899Z,17.70
2018-03-14T07:51:58.539Z,14.97
2018-03-14T07:54:26.233Z,16.17
2018-03-14T07:56:53.913Z,17.73
2018-03-14T07:59:21.605Z,10.97
2018-03-14T08:01:49.267Z,11.10
2018-03-14T08:04:16.932Z,16.50
2018-03-14T08:06:44.576Z,17.47
2018-03-14T08:09:13.045Z,13.90
2018-03-14T08:11:41.477Z,14.33
2018-03-14T08:14:09.142Z,15.00
2018-03-14T08:16:36.877Z,17.10
2018-03-14T08:19:04.634Z,18.23
2018-03-14T08:21:32.308Z,13.80
2018-03-14T08:23:59.988Z,17.27
2018-03-14T08:26:27.682Z,16.50
2018-03-14T08:28:55.352Z,16.47
2018-03-14T08:31:23.838Z,17.20
2018-03-14T08:33:51.501Z,17.30
2018-03-14T08:36:19.929Z,14.70
2018-03-14T08:38:47.619Z,13.53
2018-03-14T08:41:15.325Z,14.63
2018-03-14T08:43:42.972Z,15.47
2018-03-14T08:46:10.640Z,17.70
2018-03-14T08:48:38.346Z,15.47
2018-03-14T08:51:07.811Z,13.70
2018-03-14T08:53:35.491Z,15.70
2018-03-14T08:56:03.312Z,16.50
2018-03-14T08:58:31.757Z,14.00
2018-03-14T09:00:59.723Z,21.90
2018-03-14T09:03:28.382Z,16.60
2018-03-14T09:05:56.042Z,14.03
2018-03-14T09:08:23.736Z,16.90
2018-03-14T09:10:51.431Z,17.50
2018-03-14T09:13:19.068Z,15.60
2018-03-14T09:15:47.508Z,20.53
2018-03-14T09:18:15.229Z,14.93
2018-03-14T09:20:42.955Z,17.20
2018-03-14T09:23:10.712Z,20.87
2018-03-14T09:25:38.396Z,15.70
2018-03-14T09:28:06.031Z,15.50
2018-03-14T09:30:34.512Z,15.70
2018-03-14T09:33:03.019Z,16.60
2018-03-14T09:35:31.454Z,19.37
2018-03-14T09:37:59.128Z,12.50
2018-03-14T09:40:26.876Z,14.63
2018-03-14T09:42:54.569Z,11.73
2018-03-14T09:45:22.240Z,17.50
2018-03-14T09:47:50.708Z,18.77
2018-03-14T09:50:19.127Z,15.13
2018-03-14T09:52:46.828Z,16.37
2018-03-14T09:55:14.560Z,17.60
2018-03-14T09:57:42.217Z,20.20
2018-03-14T10:00:09.944Z,19.70
2018-03-14T10:02:37.636Z,20.10
2018-03-14T10:05:05.359Z,18.20
2018-03-14T10:07:33.039Z,15.93
2018-03-14T10:10:00.804Z,18.43
2018-03-14T10:12:28.480Z,15.50
2018-03-14T10:14:56.153Z,21.37
2018-03-14T10:17:23.853Z,15.97
2018-03-14T10:19:51.510Z,19.57
2018-03-14T10:22:19.287Z,16.40
2018-03-14T10:24:47.055Z,16.23
2018-03-14T10:27:15.533Z,20.87
2018-03-14T10:29:45.421Z,22.33
2018-03-14T10:32:13.925Z,20.63
2018-03-14T10:34:42.380Z,16.73
2018-03-14T10:37:12.165Z,15.60
2018-03-14T10:39:39.864Z,14.87
2018-03-14T10:42:07.628Z,17.27
2018-03-14T10:44:35.283Z,18.87
2018-03-14T10:47:02.980Z,16.50
2018-03-14T10:49:30.663Z,23.00
2018-03-14T10:51:58.368Z,29.37
2018-03-14T10:54:26.033Z,18.37
2018-03-14T10:56:54.508Z,17.00
2018-03-14T10:59:22.282Z,17.03
2018-03-14T11:01:50.773Z,18.93
2018-03-14T11:04:19.169Z,17.90
2018-03-14T11:06:46.906Z,18.27
2018-03-14T11:09:14.620Z,20.10
2018-03-14T11:11:42.279Z,25.43
2018-03-14T11:14:09.992Z,22.87
2018-03-14T11:16:38.476Z,19.30
2018-03-14T11:19:06.133Z,18.60
2018-03-14T11:21:34.578Z,17.10
2018-03-14T11:24:03.041Z,16.80
2018-03-14T11:26:30.716Z,16.27
2018-03-14T11:28:58.409Z,17.03
2018-03-14T11:31:26.871Z,14.87
2018-03-14T11:33:54.517Z,17.53
2018-03-14T11:36:22.257Z,13.73
2018-03-14T11:38:49.976Z,15.80
2018-03-14T11:41:17.680Z,12.53
2018-03-14T11:43:45.359Z,13.20
2018-03-14T11:46:13.021Z,15.07
2018-03-14T11:48:40.717Z,11.93
2018-03-14T11:51:09.211Z,11.97
2018-03-14T11:53:36.902Z,14.73
2018-03-14T11:56:04.668Z,13.17
2018-03-14T11:58:32.340Z,19.43
2018-03-14T12:01:00.029Z,14.67
2018-03-14T12:03:28.469Z,14.60
2018-03-14T12:05:56.159Z,12.10
2018-03-14T12:08:23.830Z,14.23
2018-03-14T12:10:52.271Z,11.83
2018-03-14T12:13:19.962Z,12.50
2018-03-14T12:15:47.629Z,12.83
2018-03-14T12:18:16.093Z,10.20
2018-03-14T12:20:43.782Z,13.83
2018-03-14T12:23:12.222Z,9.40
2018-03-14T12:25:40.680Z,9.87
2018-03-14T12:28:08.375Z,9.80
2018-03-14T12:30:36.924Z,9.03
2018-03-14T12:33:04.588Z,9.87
2018-03-14T12:35:32.254Z,9.70
2018-03-14T12:37:59.929Z,9.00
2018-03-14T12:40:27.580Z,8.00
2018-03-14T12:42:55.310Z,8.17
2018-03-14T12:45:22.993Z,11.40
2018-03-14T12:47:50.677Z,8.43
2018-03-14T12:50:19.173Z,10.47
2018-03-14T12:52:47.668Z,10.63
2018-03-14T12:55:19.220Z,8.90
2018-03-14T12:57:48.048Z,14.40
2018-03-14T13:00:15.756Z,10.40
2018-03-14T13:02:43.422Z,7.67
2018-03-14T13:05:11.972Z,10.60
2018-03-14T13:07:39.636Z,8.63
2018-03-14T13:10:08.041Z,8.37
2018-03-14T13:12:36.490Z,7.80
2018-03-14T13:15:05.041Z,10.47
2018-03-14T13:17:32.681Z,9.93
2018-03-14T13:20:00.366Z,8.90
2018-03-14T13:22:28.053Z,8.60
2018-03-14T13:24:55.835Z,8.50
2018-03-14T13:27:24.301Z,9.03
2018-03-14T13:29:52.060Z,9.43
2018-03-14T13:32:19.782Z,15.10
2018-03-14T13:34:48.650Z,7.00
2018-03-14T13:37:16.388Z,11.10
2018-03-14T13:39:44.811Z,6.70
2018-03-14T13:42:12.570Z,8.30
2018-03-14T13:44:41.041Z,9.87
2018-03-14T13:47:08.738Z,6.90
2018-03-14T13:49:36.446Z,7.53
2018-03-14T13:52:04.196Z,7.17
2018-03-14T13:54:32.592Z,7.50
2018-03-14T13:57:00.268Z,6.50
2018-03-14T13:59:27.949Z,11.70
2018-03-14T14:01:55.643Z,7.43
2018-03-14T14:04:23.317Z,7.60
2018-03-14T14:06:51.754Z,7.23
2018-03-14T14:09:19.441Z,8.97
2018-03-14T14:11:47.113Z,10.17
2018-03-14T14:14:16.227Z,8.83
2018-03-14T14:16:43.886Z,11.80
2018-03-14T14:19:11.608Z,11.07
2018-03-14T14:21:39.287Z,8.87
2018-03-14T14:24:07.752Z,9.10
2018-03-14T14:26:35.416Z,9.23
2018-03-14T14:29:03.144Z,9.33
2018-03-14T14:31:30.876Z,7.53
2018-03-14T14:33:58.592Z,8.30
2018-03-14T14:36:26.267Z,11.03
2018-03-14T14:38:54.760Z,10.63
2018-03-14T14:41:22.431Z,9.93
2018-03-14T14:43:50.112Z,8.77
2018-03-14T14:46:17.798Z,8.97
2018-03-14T14:48:45.476Z,7.30
2018-03-14T14:51:13.217Z,14.17
2018-03-14T14:53:40.899Z,9.10
2018-03-14T14:56:08.626Z,12.53
2018-03-14T14:58:36.324Z,8.10
2018-03-14T15:01:04.056Z,8.80
2018-03-14T15:03:31.841Z,8.53
2018-03-14T15:05:59.567Z,10.13
2018-03-14T15:08:27.209Z,8.53
2018-03-14T15:10:54.888Z,8.47
2018-03-14T15:13:22.545Z,8.23
2018-03-14T15:15:50.160Z,7.33
2018-03-14T15:18:18.577Z,8.03
2018-03-14T15:20:46.238Z,15.03
2018-03-14T15:23:13.856Z,8.53
2018-03-14T15:25:41.510Z,9.37
2018-03-14T15:28:11.570Z,10.30
2018-03-14T15:30:39.281Z,16.70
2018-03-14T15:33:07.032Z,9.87
2018-03-14T15:35:34.854Z,8.50
2018-03-14T15:38:02.651Z,11.63
2018-03-14T15:40:30.372Z,10.07
2018-03-14T15:42:58.059Z,8.27
2018-03-14T15:45:26.497Z,10.33
2018-03-14T15:47:54.248Z,12.53
2018-03-14T15:50:23.462Z,12.53
2018-03-14T15:52:51.115Z,10.60
2018-03-14T15:55:19.606Z,15.80
2018-03-14T15:57:48.092Z,9.47
2018-03-14T16:00:15.778Z,8.90
2018-03-14T16:02:43.534Z,11.93
2018-03-14T16:05:11.280Z,8.70
2018-03-14T16:07:38.980Z,13.60
2018-03-14T16:10:07.884Z,13.43
2018-03-14T16:12:35.634Z,11.90
2018-03-14T16:15:03.352Z,14.80
2018-03-14T16:17:31.049Z,10.40
2018-03-14T16:19:58.741Z,11.20
2018-03-14T16:22:27.187Z,11.67
2018-03-14T16:24:54.843Z,10.20
2018-03-14T16:27:22.497Z,12.60
2018-03-14T16:29:51.014Z,18.07
2018-03-14T16:32:19.577Z,14.07
2018-03-14T16:34:47.268Z,14.57
2018-03-14T16:37:15.796Z,15.00
2018-03-14T16:39:43.445Z,13.50
2018-03-14T16:42:11.205Z,14.50
2018-03-14T16:44:38.863Z,12.40
2018-03-14T16:47:06.607Z,14.67
2018-03-14T16:49:34.301Z,13.17
2018-03-14T16:52:02.795Z,14.20
2018-03-14T16:54:31.267Z,16.60
2018-03-14T16:56:58.976Z,14.57
2018-03-14T16:59:26.727Z,13.00
2018-03-14T17:01:54.429Z,15.43
2018-03-14T17:04:22.137Z,14.60
2018-03-14T17:06:49.847Z,12.97
2018-03-14T17:09:17.588Z,14.67
2018-03-14T17:11:45.307Z,16.57
2018-03-14T17:14:13.066Z,14.13
2018-03-14T17:16:40.856Z,14.73
2018-03-14T17:19:08.610Z,15.57
2018-03-14T17:21:36.312Z,18.23
2018-03-14T17:24:04.294Z,18.47
2018-03-14T17:26:32.300Z,19.00
2018-03-14T17:29:00.018Z,14.13
2018-03-14T17:31:27.733Z,20.17
2018-03-14T17:33:55.435Z,20.40
2018-03-14T17:36:23.162Z,17.90
2018-03-14T17:38:50.920Z,16.40
2018-03-14T17:41:18.592Z,16.80
2018-03-14T17:43:47.088Z,16.97
2018-03-14T17:46:14.856Z,16.23
2018-03-14T17:48:42.622Z,21.60
2018-03-14T17:51:10.296Z,19.27
2018-03-14T17:53:38.070Z,18.00
2018-03-14T17:56:05.800Z,19.53
2018-03-14T17:58:34.224Z,16.40
2018-03-14T18:01:02.045Z,18.37
2018-03-14T18:03:29.816Z,15.40
2018-03-14T18:05:57.541Z,17.17
2018-03-14T18:08:25.238Z,15.47
2018-03-14T18:10:53.035Z,21.00
2018-03-14T18:13:23.254Z,23.10
2018-03-14T18:15:51.768Z,21.17
2018-03-14T18:18:19.528Z,17.80
2018-03-14T18:20:47.250Z,16.67
2018-03-14T18:23:14.943Z,19.17
2018-03-14T18:25:42.671Z,16.80
2018-03-14T18:28:10.327Z,15.43
2018-03-14T18:30:38.096Z,20.00
2018-03-14T18:33:06.456Z,21.53
2018-03-14T18:35:34.733Z,34.90
2018-03-14T18:38:02.806Z,23.07
2018-03-14T18:40:31.781Z,22.90
2018-03-14T18:43:00.005Z,26.20
2018-03-14T18:45:28.007Z,24.47
2018-03-14T18:47:56.063Z,24.77
2018-03-14T18:50:24.586Z,148.53
2018-03-14T18:52:52.546Z,20.90
2018-03-14T18:55:20.290Z,51.77
2018-03-14T18:57:48.047Z,23.63
2018-03-14T19:00:16.225Z,20.63
2018-03-14T19:02:44.002Z,19.50
2018-03-14T19:05:11.781Z,22.23
2018-03-14T19:07:39.555Z,25.90
2018-03-14T19:10:07.277Z,21.07
2018-03-14T19:12:34.996Z,27.33
2018-03-14T19:15:02.757Z,26.43
2018-03-14T19:17:30.606Z,26.70
2018-03-14T19:19:58.421Z,25.40
2018-03-14T19:22:26.442Z,46.63
2018-03-14T19:24:54.352Z,27.57
2018-03-14T19:27:23.239Z,22.77
2018-03-14T19:29:51.098Z,72.53
2018-03-14T19:32:19.885Z,26.80
2018-03-14T19:34:48.489Z,27.20
2018-03-14T19:37:16.457Z,39.87
2018-03-14T19:39:44.408Z,27.30
2018-03-14T19:42:12.332Z,47.43
2018-03-14T19:44:40.290Z,34.63
2018-03-14T19:47:08.340Z,35.03
2018-03-14T19:49:36.286Z,26.00
2018-03-14T19:52:04.306Z,27.13
2018-03-14T19:54:32.246Z,29.20
2018-03-14T19:57:00.193Z,26.73
2018-03-14T19:59:28.222Z,31.80
2018-03-14T20:01:56.274Z,24.20
2018-03-14T20:04:24.169Z,30.53
2018-03-14T20:06:52.736Z,29.63
2018-03-14T20:09:20.664Z,35.90
2018-03-14T20:11:48.715Z,28.07
2018-03-14T20:14:16.649Z,30.57
2018-03-14T20:16:45.027Z,28.40
2018-03-14T20:19:12.817Z,31.47
2018-03-14T20:21:40.679Z,29.10
2018-03-14T20:24:08.701Z,32.60
2018-03-14T20:26:36.492Z,30.53
2018-03-14T20:29:05.033Z,29.00
2018-03-14T20:31:32.939Z,32.40
2018-03-14T20:34:01.516Z,32.20
2018-03-14T20:36:29.295Z,35.60
2018-03-14T20:38:57.874Z,32.00
2018-03-14T20:41:25.746Z,29.33
2018-03-14T20:43:54.291Z,29.50
2018-03-14T20:46:23.090Z,31.43
2018-03-14T20:48:51.820Z,33.27
2018-03-14T20:51:19.796Z,32.70
2018-03-14T20:53:47.819Z,34.03
2018-03-14T20:56:15.798Z,30.97
2018-03-14T20:58:43.819Z,38.37
2018-03-14T21:01:11.778Z,37.43
2018-03-14T21:03:39.702Z,33.60
2018-03-14T21:06:07.705Z,36.70
2018-03-14T21:08:35.761Z,38.70
2018-03-14T21:11:03.733Z,33.53
2018-03-14T21:13:31.672Z,29.23
2018-03-14T21:15:59.633Z,31.80
2018-03-14T21:18:27.438Z,32.83
2018-03-14T21:20:55.290Z,33.40
2018-03-14T21:23:23.116Z,36.20
2018-03-14T21:25:50.867Z,32.90
2018-03-14T21:28:18.557Z,36.77
2018-03-14T21:30:46.999Z,35.00
2018-03-14T21:33:15.731Z,39.27
2018-03-14T21:35:43.478Z,35.13
2018-03-14T21:38:11.195Z,37.23
2018-03-14T21:40:38.872Z,38.77
2018-03-14T21:43:06.700Z,35.97
2018-03-14T21:45:34.528Z,39.93
2018-03-14T21:48:02.458Z,41.23
2018-03-14T21:50:30.473Z,41.50
2018-03-14T21:52:58.234Z,41.37
2018-03-14T21:55:37.779Z,39.07
2018-03-14T21:58:05.743Z,38.47
2018-03-14T22:00:33.524Z,43.83
2018-03-14T22:03:01.536Z,40.93
2018-03-14T22:05:29.445Z,41.20
2018-03-14T22:07:57.400Z,39.07
2018-03-14T22:10:26.083Z,42.50
2018-03-14T22:12:54.632Z,42.33
2018-03-14T22:15:22.319Z,44.80
2018-03-14T22:17:51.356Z,48.00
2018-03-14T22:20:19.478Z,44.77
2018-03-14T22:22:48.039Z,42.80
2018-03-14T22:25:15.913Z,42.27
2018-03-14T22:27:43.694Z,49.00
2018-03-14T22:30:12.205Z,45.60
2018-03-14T22:32:40.076Z,46.80
2018-03-14T22:35:07.897Z,48.47
2018-03-14T22:37:36.361Z,47.80
2018-03-14T22:40:05.032Z,47.20
2018-03-14T22:42:33.496Z,44.90
2018-03-14T22:45:01.158Z,50.70
2018-03-14T22:47:28.899Z,54.10
2018-03-14T22:49:56.600Z,47.53
2018-03-14T22:52:24.252Z,57.43
2018-03-14T22:54:52.746Z,45.27
2018-03-14T22:57:21.288Z,47.07
2018-03-14T22:59:48.919Z,51.10
2018-03-14T23:02:16.963Z,49.67
2018-03-14T23:04:47.247Z,51.60
2018-03-14T23:07:15.693Z,55.37
2018-03-14T23:09:43.402Z,51.83
2018-03-14T23:12:11.376Z,49.77
2018-03-14T23:14:39.059Z,58.40
2018-03-14T23:17:07.529Z,46.87
2018-03-14T23:19:36.030Z,48.50
2018-03-14T23:22:03.772Z,48.50
2018-03-14T23:24:32.236Z,59.43
2018-03-14T23:26:59.924Z,49.13
2018-03-14T23:29:27.581Z,61.50
2018-03-14T23:31:55.274Z,50.57
2018-03-14T23:34:23.187Z,61.20
2018-03-14T23:36:50.869Z,55.60
2018-03-14T23:39:18.568Z,54.80
2018-03-14T23:41:46.273Z,59.10
2018-03-14T23:44:15.647Z,59.73
2018-03-14T23:46:43.349Z,56.97
2018-03-14T23:49:11.842Z,52.50
2018-03-14T23:51:39.527Z,59.60
2018-03-14T23:54:07.233Z,54.97
2018-03-14T23:56:34.896Z,63.20
2018-03-14T23:59:02.560Z,52.03
